createdAt,value
2023-03-16T00:00:08.800Z,12.81
2023-03-16T00:01:08.762Z,12.62
2023-03-16T00:02:08.835Z,12.70
2023-03-16T00:03:08.785Z,12.56
2023-03-16T00:04:08.718Z,12.49
2023-03-16T00:05:08.709Z,12.24
2023-03-16T00:06:08.680Z,12.65
2023-03-16T00:07:08.649Z,12.69
2023-03-16T00:08:08.642Z,12.86
2023-03-16T00:09:08.614Z,12.38
2023-03-16T00:10:08.619Z,12.32
2023-03-16T00:11:08.584Z,12.51
2023-03-16T00:12:08.570Z,12.42
2023-03-16T00:13:08.555Z,12.45
2023-03-16T00:14:08.537Z,12.35
2023-03-16T00:15:08.525Z,12.27
2023-03-16T00:16:08.518Z,12.33
2023-03-16T00:17:08.475Z,12.52
2023-03-16T00:18:08.463Z,12.61
2023-03-16T00:19:08.430Z,12.19
2023-03-16T00:20:08.430Z,12.35
2023-03-16T00:21:08.413Z,12.61
2023-03-16T00:22:08.421Z,12.64
2023-03-16T00:23:08.367Z,12.63
2023-03-16T00:24:08.361Z,12.52
2023-03-16T00:25:08.314Z,12.53
2023-03-16T00:26:08.303Z,12.54
2023-03-16T00:27:08.281Z,12.13
2023-03-16T00:28:08.270Z,12.23
2023-03-16T00:29:08.261Z,12.34
2023-03-16T00:30:08.225Z,12.36
2023-03-16T00:31:08.190Z,12.34
2023-03-16T00:32:08.163Z,12.37
2023-03-16T00:33:08.293Z,12.28
2023-03-16T00:34:08.112Z,12.49
2023-03-16T00:35:09.520Z,12.52
2023-03-16T00:36:08.137Z,12.47
2023-03-16T00:37:08.133Z,12.34
2023-03-16T00:38:08.052Z,12.15
2023-03-16T00:39:08.009Z,12.27
2023-03-16T00:40:08.046Z,12.24
2023-03-16T00:41:07.999Z,12.09
2023-03-16T00:42:07.946Z,12.24
2023-03-16T00:43:07.931Z,12.24
2023-03-16T00:44:07.926Z,12.43
2023-03-16T00:45:07.889Z,12.26
2023-03-16T00:46:07.888Z,12.24
2023-03-16T00:47:07.832Z,12.15
2023-03-16T00:48:07.825Z,12.20
2023-03-16T00:49:07.801Z,12.05
2023-03-16T00:50:07.777Z,11.66
2023-03-16T00:51:07.739Z,11.95
2023-03-16T00:52:07.719Z,12.03
2023-03-16T00:53:07.700Z,11.94
2023-03-16T00:54:07.672Z,12.21
2023-03-16T00:55:07.661Z,12.05
2023-03-16T00:56:07.633Z,12.18
2023-03-16T00:57:07.599Z,11.92
2023-03-16T00:58:07.600Z,11.88
2023-03-16T00:59:07.572Z,11.89
2023-03-16T01:00:07.549Z,12.28
2023-03-16T01:01:07.644Z,12.14
2023-03-16T01:02:07.504Z,12.28
2023-03-16T01:03:07.564Z,12.23
2023-03-16T01:04:07.471Z,11.95
2023-03-16T01:05:07.452Z,12.20
2023-03-16T01:06:07.448Z,12.04
2023-03-16T01:07:07.426Z,12.12
2023-03-16T01:08:07.404Z,11.92
2023-03-16T01:09:07.375Z,11.95
2023-03-16T01:10:07.361Z,11.96
2023-03-16T01:11:07.350Z,11.89
2023-03-16T01:12:07.326Z,11.62
2023-03-16T01:13:07.315Z,11.76
2023-03-16T01:14:07.298Z,11.85
2023-03-16T01:15:07.291Z,11.74
2023-03-16T01:16:07.265Z,11.62
2023-03-16T01:17:07.305Z,11.61
2023-03-16T01:18:07.237Z,11.59
2023-03-16T01:19:07.238Z,11.76
2023-03-16T01:20:07.204Z,11.61
2023-03-16T01:21:07.174Z,11.67
2023-03-16T01:22:07.161Z,11.59
2023-03-16T01:23:07.143Z,11.60
2023-03-16T01:24:07.126Z,11.55
2023-03-16T01:25:07.128Z,11.46
2023-03-16T01:26:07.106Z,11.36
2023-03-16T01:27:07.096Z,11.58
2023-03-16T01:28:07.060Z,11.34
2023-03-16T01:29:07.051Z,11.11
2023-03-16T01:30:07.025Z,11.24
2023-03-16T01:31:07.051Z,11.25
2023-03-16T01:32:07.038Z,10.83
2023-03-16T01:33:07.056Z,10.95
2023-03-16T01:34:06.961Z,10.69
2023-03-16T01:35:06.934Z,10.82
2023-03-16T01:36:06.950Z,10.71
2023-03-16T01:37:06.914Z,10.87
2023-03-16T01:38:06.889Z,10.69
2023-03-16T01:39:06.923Z,10.70
2023-03-16T01:40:06.899Z,10.63
2023-03-16T01:41:06.833Z,10.56
2023-03-16T01:42:06.812Z,10.70
2023-03-16T01:43:06.796Z,10.36
2023-03-16T01:44:06.780Z,10.36
2023-03-16T01:45:06.766Z,10.38
2023-03-16T01:46:06.811Z,10.61
2023-03-16T01:47:06.740Z,10.63
2023-03-16T01:48:06.704Z,10.64
2023-03-16T01:49:06.677Z,10.54
2023-03-16T01:50:06.672Z,10.72
2023-03-16T01:51:06.654Z,10.71
2023-03-16T01:52:06.632Z,10.34
2023-03-16T01:53:06.623Z,10.53
2023-03-16T01:54:06.591Z,10.64
2023-03-16T01:55:06.578Z,10.57
2023-03-16T01:56:06.580Z,10.79
2023-03-16T01:57:06.578Z,10.66
2023-03-16T01:58:06.533Z,10.83
2023-03-16T02:01:06.549Z,10.70
2023-03-16T02:02:06.486Z,10.76
2023-03-16T02:03:06.463Z,10.82
2023-03-16T02:04:06.506Z,10.78
2023-03-16T02:05:06.421Z,10.96
2023-03-16T02:06:06.403Z,10.62
2023-03-16T02:07:06.394Z,10.78
2023-03-16T02:08:06.365Z,10.61
2023-03-16T02:09:06.349Z,10.86
2023-03-16T02:10:06.342Z,10.76
2023-03-16T02:11:06.325Z,10.41
2023-03-16T02:12:06.315Z,10.70
2023-03-16T02:13:06.307Z,10.59
2023-03-16T02:14:06.282Z,10.54
2023-03-16T02:15:06.290Z,10.68
2023-03-16T02:16:06.257Z,10.74
2023-03-16T02:17:06.238Z,10.63
2023-03-16T02:18:06.208Z,10.46
2023-03-16T02:19:06.220Z,10.59
2023-03-16T02:20:06.160Z,10.30
2023-03-16T02:21:06.146Z,10.37
2023-03-16T02:22:06.119Z,10.32
2023-03-16T02:23:06.134Z,10.15
2023-03-16T02:24:06.091Z,10.28
2023-03-16T02:25:06.063Z,10.13
2023-03-16T02:26:06.056Z,10.04
2023-03-16T02:27:06.027Z,9.79
2023-03-16T02:28:06.020Z,9.93
2023-03-16T02:29:05.996Z,9.74
2023-03-16T02:30:06.007Z,9.86
2023-03-16T02:31:06.047Z,9.78
2023-03-16T02:32:05.964Z,9.79
2023-03-16T02:33:06.073Z,9.93
2023-03-16T02:34:05.933Z,9.55
2023-03-16T02:35:05.900Z,9.69
2023-03-16T02:36:05.973Z,9.72
2023-03-16T02:37:05.872Z,9.77
2023-03-16T02:38:05.867Z,9.62
2023-03-16T02:39:05.900Z,9.81
2023-03-16T02:40:05.832Z,9.73
2023-03-16T02:41:05.815Z,9.45
2023-03-16T02:42:05.791Z,9.40
2023-03-16T02:43:05.792Z,9.48
2023-03-16T02:44:05.754Z,9.53
2023-03-16T02:45:05.736Z,9.69
2023-03-16T02:46:05.833Z,9.57
2023-03-16T02:47:05.698Z,9.67
2023-03-16T02:48:05.693Z,9.72
2023-03-16T02:49:05.662Z,9.46
2023-03-16T02:50:05.651Z,9.52
2023-03-16T02:51:05.664Z,9.51
2023-03-16T02:52:05.641Z,9.23
2023-03-16T02:53:05.628Z,9.42
2023-03-16T02:54:05.594Z,8.57
2023-03-16T02:55:05.563Z,8.83
2023-03-16T02:56:05.547Z,8.64
2023-03-16T02:57:05.531Z,8.72
2023-03-16T02:58:05.518Z,8.57
2023-03-16T02:59:05.497Z,8.37
2023-03-16T03:00:05.499Z,8.61
2023-03-16T03:01:05.464Z,8.71
2023-03-16T03:02:05.436Z,8.82
2023-03-16T03:03:05.463Z,9.30
2023-03-16T03:04:05.420Z,9.49
2023-03-16T03:05:05.408Z,9.55
2023-03-16T03:06:05.374Z,9.43
2023-03-16T03:07:05.371Z,9.77
2023-03-16T03:08:05.380Z,10.00
2023-03-16T03:09:05.347Z,10.27
2023-03-16T03:10:05.340Z,10.56
2023-03-16T03:11:05.313Z,10.63
2023-03-16T03:12:05.315Z,10.80
2023-03-16T03:13:05.318Z,11.03
2023-03-16T03:14:05.309Z,11.14
2023-03-16T03:15:05.339Z,11.14
2023-03-16T03:16:05.365Z,11.22
2023-03-16T03:17:05.810Z,11.40
2023-03-16T03:18:05.377Z,11.75
2023-03-16T03:19:05.288Z,11.60
2023-03-16T03:20:05.301Z,11.95
2023-03-16T03:21:05.187Z,11.94
2023-03-16T03:22:05.166Z,12.00
2023-03-16T03:23:05.134Z,12.05
2023-03-16T03:24:05.138Z,12.43
2023-03-16T03:25:05.117Z,12.53
2023-03-16T03:26:05.074Z,12.47
2023-03-16T03:27:05.097Z,12.56
2023-03-16T03:28:05.076Z,12.52
2023-03-16T03:29:05.332Z,12.91
2023-03-16T03:30:05.067Z,12.82
2023-03-16T03:31:05.003Z,12.96
2023-03-16T03:32:05.081Z,12.95
2023-03-16T03:33:05.100Z,12.93
2023-03-16T03:34:05.020Z,12.96
2023-03-16T03:35:04.949Z,13.15
2023-03-16T03:36:05.024Z,13.14
2023-03-16T03:37:04.928Z,13.11
2023-03-16T03:38:04.881Z,13.11
2023-03-16T03:39:05.089Z,12.97
2023-03-16T03:40:04.848Z,12.62
2023-03-16T03:41:04.834Z,12.87
2023-03-16T03:42:04.819Z,12.91
2023-03-16T03:43:04.802Z,12.69
2023-03-16T03:44:04.792Z,12.90
2023-03-16T03:45:04.774Z,12.68
2023-03-16T03:46:04.827Z,12.51
2023-03-16T03:47:04.784Z,12.54
2023-03-16T03:48:04.725Z,12.86
2023-03-16T03:49:04.714Z,12.95
2023-03-16T03:50:04.693Z,13.14
2023-03-16T03:51:04.680Z,13.21
2023-03-16T03:52:04.668Z,13.10
2023-03-16T03:53:04.638Z,13.15
2023-03-16T03:54:04.631Z,13.26
2023-03-16T03:55:04.623Z,13.10
2023-03-16T03:56:04.594Z,13.37
2023-03-16T03:57:04.572Z,13.63
2023-03-16T03:58:04.583Z,13.48
2023-03-16T03:59:04.558Z,13.28
2023-03-16T04:00:04.527Z,13.33
2023-03-16T04:01:04.499Z,13.12
2023-03-16T04:02:04.661Z,13.03
2023-03-16T04:03:04.585Z,12.95
2023-03-16T04:04:04.471Z,12.83
2023-03-16T04:05:04.444Z,12.82
2023-03-16T04:06:04.410Z,12.58
2023-03-16T04:07:04.416Z,12.38
2023-03-16T04:08:04.378Z,12.32
2023-03-16T04:09:04.372Z,12.29
2023-03-16T04:10:04.359Z,12.16
2023-03-16T04:11:04.343Z,11.94
2023-03-16T04:12:04.331Z,12.11
2023-03-16T04:13:04.291Z,11.82
2023-03-16T04:14:04.287Z,11.66
2023-03-16T04:15:04.262Z,11.67
2023-03-16T04:16:04.256Z,11.42
2023-03-16T04:17:04.305Z,11.18
2023-03-16T04:18:04.223Z,11.34
2023-03-16T04:19:04.267Z,11.10
2023-03-16T04:20:04.200Z,11.05
2023-03-16T04:21:04.181Z,10.62
2023-03-16T04:22:04.155Z,10.69
2023-03-16T04:23:04.156Z,10.72
2023-03-16T04:24:04.133Z,10.46
2023-03-16T04:25:04.134Z,10.36
2023-03-16T04:26:04.103Z,10.20
2023-03-16T04:27:04.092Z,10.19
2023-03-16T04:28:04.075Z,10.03
2023-03-16T04:29:04.065Z,9.90
2023-03-16T04:30:04.059Z,9.86
2023-03-16T04:31:04.095Z,9.85
2023-03-16T04:32:04.015Z,9.77
2023-03-16T04:33:04.060Z,9.91
2023-03-16T04:34:03.990Z,9.72
2023-03-16T04:35:04.008Z,9.53
2023-03-16T04:36:04.033Z,9.52
2023-03-16T04:37:03.967Z,9.49
2023-03-16T04:38:03.958Z,9.61
2023-03-16T04:39:03.955Z,9.49
2023-03-16T04:40:03.945Z,9.39
2023-03-16T04:41:03.939Z,9.34
2023-03-16T04:42:03.930Z,9.24
2023-03-16T04:43:03.922Z,9.26
2023-03-16T04:44:03.907Z,9.41
2023-03-16T04:45:03.905Z,9.28
2023-03-16T04:46:04.002Z,9.40
2023-03-16T04:47:03.883Z,9.12
2023-03-16T04:48:03.913Z,9.10
2023-03-16T04:49:03.863Z,9.17
2023-03-16T04:50:03.863Z,9.07
2023-03-16T04:51:03.898Z,9.11
2023-03-16T04:52:03.840Z,9.10
2023-03-16T04:53:03.833Z,9.16
2023-03-16T04:54:03.822Z,9.16
2023-03-16T04:55:03.887Z,9.21
2023-03-16T04:56:03.810Z,9.12
2023-03-16T04:57:03.825Z,9.14
2023-03-16T04:58:03.783Z,9.18
2023-03-16T04:59:03.780Z,8.91
2023-03-16T05:00:03.774Z,8.89
2023-03-16T05:01:03.766Z,8.91
2023-03-16T05:02:03.744Z,8.97
2023-03-16T05:03:03.732Z,8.83
2023-03-16T05:04:03.718Z,8.67
2023-03-16T05:05:03.726Z,8.59
2023-03-16T05:06:03.755Z,8.57
2023-03-16T05:07:03.671Z,8.67
2023-03-16T05:08:03.652Z,8.62
2023-03-16T05:09:03.660Z,8.51
2023-03-16T05:10:03.635Z,8.40
2023-03-16T05:11:03.616Z,8.46
2023-03-16T05:12:03.591Z,8.48
2023-03-16T05:13:03.595Z,8.50
2023-03-16T05:14:03.575Z,8.54
2023-03-16T05:15:03.587Z,8.44
2023-03-16T05:16:03.675Z,8.62
2023-03-16T05:17:03.530Z,8.53
2023-03-16T05:18:03.532Z,8.68
2023-03-16T05:19:03.502Z,8.92
2023-03-16T05:20:03.486Z,9.00
2023-03-16T05:21:03.465Z,8.89
2023-03-16T05:22:03.436Z,9.09
2023-03-16T05:23:03.419Z,9.32
2023-03-16T05:24:03.405Z,9.29
2023-03-16T05:25:03.389Z,9.11
2023-03-16T05:26:03.372Z,9.03
2023-03-16T05:27:03.349Z,9.23
2023-03-16T05:28:03.356Z,8.98
2023-03-16T05:29:03.307Z,9.09
2023-03-16T05:30:03.293Z,9.05
2023-03-16T05:31:03.299Z,9.32
2023-03-16T05:32:03.258Z,9.40
2023-03-16T05:33:03.317Z,9.46
2023-03-16T05:34:03.215Z,9.43
2023-03-16T05:35:03.214Z,9.46
2023-03-16T05:36:03.261Z,9.66
2023-03-16T05:37:03.162Z,9.57
2023-03-16T05:38:03.132Z,9.58
2023-03-16T05:39:03.154Z,9.62
2023-03-16T05:40:03.111Z,9.72
2023-03-16T05:41:05.704Z,9.91
2023-03-16T05:42:03.086Z,10.25
2023-03-16T05:43:03.062Z,10.03
2023-03-16T05:44:03.040Z,9.96
2023-03-16T05:45:03.028Z,9.98
2023-03-16T05:46:03.015Z,9.96
2023-03-16T05:47:03.042Z,10.25
2023-03-16T05:48:02.978Z,10.01
2023-03-16T05:49:02.974Z,10.31
2023-03-16T05:50:02.964Z,10.12
2023-03-16T05:51:02.956Z,10.18
2023-03-16T05:52:02.943Z,10.39
2023-03-16T05:53:02.934Z,10.28
2023-03-16T05:54:02.929Z,10.46
2023-03-16T05:55:02.922Z,10.24
2023-03-16T05:56:02.925Z,10.47
2023-03-16T05:57:02.883Z,10.46
2023-03-16T05:58:05.165Z,10.59
2023-03-16T05:59:02.880Z,10.60
2023-03-16T06:00:02.845Z,10.59
2023-03-16T06:01:02.829Z,10.62
2023-03-16T06:02:02.821Z,10.88
2023-03-16T06:03:02.942Z,10.95
2023-03-16T06:04:02.854Z,10.81
2023-03-16T06:05:02.782Z,10.58
2023-03-16T06:06:02.770Z,10.61
2023-03-16T06:07:02.757Z,10.53
2023-03-16T06:08:02.848Z,10.63
2023-03-16T06:09:02.759Z,10.32
2023-03-16T06:10:02.732Z,10.34
2023-03-16T06:11:02.751Z,10.39
2023-03-16T06:12:02.716Z,10.36
2023-03-16T06:13:02.716Z,10.15
2023-03-16T06:14:02.711Z,10.05
2023-03-16T06:15:02.715Z,9.81
2023-03-16T06:16:02.751Z,9.98
2023-03-16T06:17:02.667Z,9.76
2023-03-16T06:18:02.666Z,9.75
2023-03-16T06:19:02.645Z,9.80
2023-03-16T06:20:02.622Z,9.54
2023-03-16T06:21:02.613Z,9.40
2023-03-16T06:22:02.668Z,9.30
2023-03-16T06:23:02.593Z,9.29
2023-03-16T06:24:02.576Z,9.32
2023-03-16T06:25:02.561Z,9.30
2023-03-16T06:26:02.557Z,9.24
2023-03-16T06:27:02.576Z,9.22
2023-03-16T06:28:02.525Z,9.12
2023-03-16T06:29:02.520Z,9.24
2023-03-16T06:30:02.546Z,9.09
2023-03-16T06:31:02.500Z,9.11
2023-03-16T06:32:02.508Z,9.16
2023-03-16T06:33:02.509Z,9.14
2023-03-16T06:34:02.462Z,9.26
2023-03-16T06:35:02.471Z,9.34
2023-03-16T06:36:02.488Z,8.97
2023-03-16T06:37:02.475Z,9.21
2023-03-16T06:38:02.418Z,9.63
2023-03-16T06:39:02.404Z,9.98
2023-03-16T06:40:02.430Z,10.60
2023-03-16T06:41:02.374Z,10.85
2023-03-16T06:42:02.524Z,11.60
2023-03-16T06:43:02.404Z,13.22
2023-03-16T06:44:02.396Z,13.43
2023-03-16T06:45:02.314Z,13.32
2023-03-16T06:46:02.351Z,13.33
2023-03-16T06:47:02.285Z,13.90
2023-03-16T06:48:02.286Z,13.74
2023-03-16T06:49:02.283Z,13.84
2023-03-16T06:50:02.310Z,14.72
2023-03-16T06:51:02.244Z,15.52
2023-03-16T06:52:02.231Z,18.77
2023-03-16T06:53:02.227Z,20.17
2023-03-16T06:54:02.225Z,22.45
2023-03-16T06:55:02.204Z,23.61
2023-03-16T06:56:02.125Z,26.45
2023-03-16T06:57:02.116Z,27.91
2023-03-16T06:58:02.141Z,30.15
2023-03-16T06:59:02.091Z,31.53
2023-03-16T07:00:02.075Z,33.65
2023-03-16T07:01:02.117Z,34.34
2023-03-16T07:02:02.044Z,35.07
2023-03-16T07:03:02.023Z,37.49
2023-03-16T07:04:02.044Z,40.63
2023-03-16T07:05:01.966Z,42.30
2023-03-16T07:06:01.937Z,44.55
2023-03-16T07:07:01.909Z,46.83
2023-03-16T07:08:01.875Z,51.15
2023-03-16T07:09:01.895Z,52.79
2023-03-16T07:10:01.818Z,56.80
2023-03-16T07:11:01.775Z,59.34
2023-03-16T07:12:01.765Z,61.64
2023-03-16T07:13:01.745Z,64.74
2023-03-16T07:14:01.699Z,64.93
2023-03-16T07:15:01.687Z,65.82
2023-03-16T07:16:01.649Z,68.05
2023-03-16T07:17:01.706Z,72.60
2023-03-16T07:18:01.592Z,79.50
2023-03-16T07:19:01.555Z,84.72
2023-03-16T07:20:01.523Z,87.87
2023-03-16T07:21:01.489Z,90.09
2023-03-16T07:22:01.454Z,93.25
2023-03-16T07:23:01.423Z,97.97
2023-03-16T07:24:01.614Z,102.62
2023-03-16T07:25:01.375Z,105.87
2023-03-16T07:26:01.315Z,107.91
2023-03-16T07:27:01.291Z,112.54
2023-03-16T07:28:01.254Z,117.21
2023-03-16T07:29:01.223Z,122.27
2023-03-16T07:30:01.207Z,140.38
2023-03-16T07:31:04.216Z,213.76
2023-03-16T07:32:01.267Z,249.98
2023-03-16T07:33:01.212Z,233.37
2023-03-16T07:34:01.055Z,222.75
2023-03-16T07:35:01.020Z,219.74
2023-03-16T07:36:01.077Z,221.00
2023-03-16T07:37:00.977Z,220.24
2023-03-16T07:38:00.890Z,214.11
2023-03-16T07:39:00.997Z,214.80
2023-03-16T07:40:00.825Z,219.57
2023-03-16T07:41:00.891Z,215.26
2023-03-16T07:42:00.751Z,218.29
2023-03-16T07:43:00.688Z,218.71
2023-03-16T07:44:00.669Z,191.78
2023-03-16T07:45:00.603Z,186.17
2023-03-16T07:46:00.611Z,120.54
2023-03-16T07:47:00.554Z,30.46
2023-03-16T07:48:00.511Z,16.51
2023-03-16T07:49:00.477Z,28.33
2023-03-16T07:50:00.494Z,36.10
2023-03-16T07:51:00.476Z,35.10
2023-03-16T07:52:00.451Z,32.72
2023-03-16T07:53:00.394Z,34.93
2023-03-16T07:54:00.382Z,37.14
2023-03-16T07:55:00.304Z,39.15
2023-03-16T07:56:00.300Z,39.49
2023-03-16T07:57:00.273Z,40.82
2023-03-16T07:58:00.500Z,42.94
2023-03-16T07:59:00.195Z,44.83
2023-03-16T08:00:00.197Z,45.93
2023-03-16T08:01:00.146Z,47.82
2023-03-16T08:02:00.207Z,50.41
2023-03-16T08:03:00.130Z,50.80
2023-03-16T08:04:00.143Z,53.92
2023-03-16T08:05:00.092Z,56.65
2023-03-16T08:06:00.037Z,55.92
2023-03-16T08:07:00.016Z,57.65
2023-03-16T08:08:00.010Z,57.82
2023-03-16T08:08:59.983Z,58.50
2023-03-16T08:09:59.950Z,59.47
2023-03-16T08:10:59.967Z,62.05
2023-03-16T08:11:59.914Z,67.77
2023-03-16T08:12:59.934Z,68.08
2023-03-16T08:13:59.884Z,68.99
2023-03-16T08:14:59.826Z,73.20
2023-03-16T08:15:59.833Z,73.70
2023-03-16T08:16:59.776Z,74.34
2023-03-16T08:17:59.794Z,76.55
2023-03-16T08:18:59.727Z,77.94
2023-03-16T08:19:59.726Z,80.96
2023-03-16T08:20:59.656Z,83.85
2023-03-16T08:22:01.742Z,86.96
2023-03-16T08:23:00.455Z,91.13
2023-03-16T08:23:59.600Z,91.36
2023-03-16T08:24:59.565Z,91.08
2023-03-16T08:25:59.545Z,92.17
2023-03-16T08:26:59.549Z,95.51
2023-03-16T08:27:59.478Z,98.64
2023-03-16T08:28:59.482Z,101.87
2023-03-16T08:29:59.404Z,104.10
2023-03-16T08:30:59.474Z,105.41
2023-03-16T08:31:59.442Z,111.72
2023-03-16T08:32:59.688Z,117.74
2023-03-16T08:33:59.543Z,114.57
2023-03-16T08:34:59.548Z,110.07
2023-03-16T08:35:59.626Z,93.13
2023-03-16T08:36:59.589Z,85.38
2023-03-16T08:37:59.654Z,78.81
2023-03-16T08:39:07.036Z,73.82
2023-03-16T08:40:00.649Z,73.88
2023-03-16T08:40:59.631Z,71.78
2023-03-16T08:41:59.536Z,71.37
2023-03-16T08:42:59.498Z,70.53
2023-03-16T08:43:59.514Z,73.88
2023-03-16T08:44:59.434Z,72.01
2023-03-16T08:45:59.456Z,64.90
2023-03-16T08:46:59.376Z,58.64
2023-03-16T08:47:59.347Z,58.98
2023-03-16T08:48:59.310Z,53.04
2023-03-16T08:49:59.369Z,44.34
2023-03-16T08:50:59.237Z,27.64
2023-03-16T08:51:59.252Z,21.23
2023-03-16T08:52:59.990Z,17.31
2023-03-16T08:53:59.183Z,12.59
2023-03-16T08:55:03.335Z,8.43
2023-03-16T08:55:59.114Z,7.04
2023-03-16T08:56:59.084Z,4.88
2023-03-16T08:57:59.104Z,2.89
2023-03-16T08:58:59.078Z,2.55
2023-03-16T08:59:59.046Z,2.74
2023-03-16T09:00:59.009Z,1.74
2023-03-16T09:01:59.075Z,1.06
2023-03-16T09:02:59.002Z,1.06
2023-03-16T09:03:59.060Z,0.99
2023-03-16T09:04:58.986Z,0.82
2023-03-16T09:05:58.994Z,0.81
2023-03-16T09:07:08.330Z,0.75
2023-03-16T09:07:59.912Z,0.87
2023-03-16T09:08:58.866Z,0.83
2023-03-16T09:09:58.824Z,0.84
2023-03-16T09:10:58.846Z,0.39
2023-03-16T09:11:58.803Z,0.34
2023-03-16T09:12:58.829Z,0.34
2023-03-16T09:13:58.792Z,0.34
2023-03-16T09:14:58.819Z,0.34
2023-03-16T09:15:58.814Z,0.34
2023-03-16T09:16:58.753Z,0.34
2023-03-16T09:17:58.763Z,0.34
2023-03-16T09:18:58.738Z,0.34
2023-03-16T09:20:05.562Z,0.34
2023-03-16T09:21:00.207Z,0.34
2023-03-16T09:21:58.682Z,0.34
2023-03-16T09:22:58.652Z,0.34
2023-03-16T09:23:58.616Z,0.40
2023-03-16T09:24:58.638Z,0.57
2023-03-16T09:25:58.605Z,0.69
2023-03-16T09:26:58.578Z,0.87
2023-03-16T09:27:58.500Z,1.10
2023-03-16T09:28:58.514Z,1.25
2023-03-16T09:29:58.476Z,1.55
2023-03-16T09:30:58.486Z,1.99
2023-03-16T09:31:58.438Z,2.50
2023-03-16T09:32:58.480Z,3.14
2023-03-16T09:33:58.372Z,3.72
2023-03-16T09:34:58.365Z,4.35
2023-03-16T09:35:58.352Z,5.12
2023-03-16T09:36:58.345Z,5.84
2023-03-16T09:38:06.904Z,6.63
2023-03-16T09:38:59.211Z,6.66
2023-03-16T09:40:06.371Z,6.87
2023-03-16T09:40:59.167Z,6.71
2023-03-16T09:41:59.056Z,7.07
2023-03-16T09:42:58.075Z,7.85
2023-03-16T09:43:58.232Z,9.34
2023-03-16T09:44:57.995Z,12.11
2023-03-16T09:45:58.025Z,13.33
2023-03-16T09:46:57.920Z,14.11
2023-03-16T09:47:57.924Z,14.98
2023-03-16T09:48:57.937Z,15.75
2023-03-16T09:49:57.790Z,15.50
2023-03-16T09:50:57.867Z,16.33
2023-03-16T09:51:59.645Z,15.78
2023-03-16T09:52:57.820Z,15.57
2023-03-16T09:53:57.758Z,14.43
2023-03-16T09:54:57.727Z,12.21
2023-03-16T09:55:57.689Z,10.26
2023-03-16T09:56:57.644Z,7.52
2023-03-16T09:57:57.596Z,4.88
2023-03-16T09:58:57.561Z,2.93
2023-03-16T09:59:57.568Z,2.33
2023-03-16T10:00:57.842Z,1.91
2023-03-16T10:01:57.603Z,2.12
2023-03-16T10:02:57.653Z,2.83
2023-03-16T10:03:57.709Z,2.69
2023-03-16T10:04:57.816Z,3.06
2023-03-16T10:05:57.740Z,3.64
2023-03-16T10:06:57.720Z,3.72
2023-03-16T10:07:57.748Z,3.23
2023-03-16T10:08:57.753Z,2.64
2023-03-16T10:09:58.031Z,2.61
2023-03-16T10:10:57.789Z,2.80
2023-03-16T10:11:57.817Z,3.09
2023-03-16T10:12:59.138Z,3.75
2023-03-16T10:13:57.790Z,2.76
2023-03-16T10:14:57.868Z,2.45
2023-03-16T10:15:57.852Z,2.65
2023-03-16T10:16:57.896Z,1.66
2023-03-16T10:17:57.968Z,0.65
2023-03-16T10:18:57.860Z,0.43
2023-03-16T10:19:57.901Z,0.79
2023-03-16T10:20:57.902Z,0.84
2023-03-16T10:21:57.917Z,0.55
2023-03-16T10:22:57.938Z,0.54
2023-03-16T10:23:58.022Z,0.56
2023-03-16T10:24:57.986Z,0.88
2023-03-16T10:25:58.024Z,1.11
2023-03-16T10:26:58.023Z,1.30
2023-03-16T10:27:58.048Z,1.57
2023-03-16T10:28:58.257Z,1.93
2023-03-16T10:29:58.121Z,2.49
2023-03-16T10:30:58.090Z,2.99
2023-03-16T10:31:58.128Z,3.71
2023-03-16T10:32:58.198Z,4.33
2023-03-16T10:33:58.164Z,4.79
2023-03-16T10:34:58.186Z,5.01
2023-03-16T10:35:58.171Z,5.24
2023-03-16T10:36:58.224Z,5.16
2023-03-16T10:37:58.204Z,4.43
2023-03-16T10:38:58.178Z,2.90
2023-03-16T10:39:58.104Z,2.63
2023-03-16T10:40:58.103Z,2.88
2023-03-16T10:41:58.035Z,2.51
2023-03-16T10:42:58.010Z,3.51
2023-03-16T10:43:57.969Z,4.02
2023-03-16T10:44:57.911Z,4.50
2023-03-16T10:45:57.935Z,5.11
2023-03-16T10:46:57.852Z,5.65
2023-03-16T10:47:57.818Z,6.37
2023-03-16T10:48:57.796Z,7.18
2023-03-16T10:49:57.776Z,7.78
2023-03-16T10:50:57.723Z,8.69
2023-03-16T10:51:57.659Z,9.46
2023-03-16T10:52:58.335Z,10.05
2023-03-16T10:53:57.590Z,10.57
2023-03-16T10:54:57.606Z,11.44
2023-03-16T10:55:57.523Z,12.10
2023-03-16T10:56:57.499Z,12.49
2023-03-16T10:57:57.461Z,13.20
2023-03-16T10:58:57.397Z,13.49
2023-03-16T10:59:57.451Z,13.93
2023-03-16T11:00:57.389Z,14.43
2023-03-16T11:01:57.291Z,14.93
2023-03-16T11:02:57.268Z,15.80
2023-03-16T11:03:57.274Z,15.56
2023-03-16T11:04:57.453Z,16.62
2023-03-16T11:05:57.137Z,17.14
2023-03-16T11:06:57.098Z,17.71
2023-03-16T11:07:57.236Z,17.53
2023-03-16T11:08:57.030Z,18.08
2023-03-16T11:09:57.002Z,18.04
2023-03-16T11:10:56.964Z,18.97
2023-03-16T11:11:57.060Z,18.84
2023-03-16T11:13:00.307Z,19.25
2023-03-16T11:13:56.845Z,19.29
2023-03-16T11:14:56.773Z,19.50
2023-03-16T11:15:56.807Z,20.18
2023-03-16T11:16:56.803Z,21.41
2023-03-16T11:17:56.678Z,23.49
2023-03-16T11:18:56.650Z,24.75
2023-03-16T11:19:56.581Z,24.54
2023-03-16T11:20:56.542Z,24.52
2023-03-16T11:21:56.509Z,24.75
2023-03-16T11:22:56.525Z,25.13
2023-03-16T11:23:56.424Z,25.78
2023-03-16T11:24:56.379Z,25.96
2023-03-16T11:25:56.349Z,26.34
2023-03-16T11:26:56.296Z,26.01
2023-03-16T11:27:56.247Z,26.59
2023-03-16T11:28:56.215Z,27.12
2023-03-16T11:29:56.222Z,28.09
2023-03-16T11:30:56.224Z,28.66
2023-03-16T11:31:56.101Z,28.34
2023-03-16T11:32:56.077Z,28.52
2023-03-16T11:33:55.991Z,28.54
2023-03-16T11:34:56.036Z,28.70
2023-03-16T11:35:59.244Z,28.83
2023-03-16T11:36:55.893Z,28.59
2023-03-16T11:37:55.922Z,28.77
2023-03-16T11:38:56.449Z,29.01
2023-03-16T11:39:55.758Z,29.59
2023-03-16T11:40:55.698Z,30.39
2023-03-16T11:41:55.660Z,30.55
2023-03-16T11:42:55.626Z,30.70
2023-03-16T11:43:55.632Z,29.78
2023-03-16T11:44:55.535Z,30.90
2023-03-16T11:45:55.524Z,30.29
2023-03-16T11:46:55.472Z,30.24
2023-03-16T11:47:55.479Z,31.04
2023-03-16T11:48:55.398Z,30.79
2023-03-16T11:49:55.336Z,30.59
2023-03-16T11:50:56.053Z,30.66
2023-03-16T11:51:57.212Z,30.67
2023-03-16T11:52:55.198Z,30.87
2023-03-16T11:53:55.188Z,30.90
2023-03-16T11:54:55.126Z,30.76
2023-03-16T11:55:55.028Z,31.12
2023-03-16T11:56:55.014Z,30.42
2023-03-16T11:57:54.932Z,29.93
2023-03-16T11:58:54.995Z,29.54
2023-03-16T12:00:01.006Z,29.90
2023-03-16T12:00:55.824Z,29.94
2023-03-16T12:02:00.835Z,29.91
2023-03-16T12:02:56.141Z,29.95
2023-03-16T12:03:54.743Z,29.90
2023-03-16T12:04:54.664Z,29.94
2023-03-16T12:05:54.564Z,29.99
2023-03-16T12:06:54.638Z,30.06
2023-03-16T12:07:54.654Z,29.63
2023-03-16T12:08:54.684Z,30.10
2023-03-16T12:09:56.038Z,28.27
2023-03-16T12:10:54.474Z,28.48
2023-03-16T12:11:54.266Z,27.89
2023-03-16T12:12:54.236Z,27.32
2023-03-16T12:13:54.191Z,26.49
2023-03-16T12:14:54.153Z,26.95
2023-03-16T12:15:54.117Z,26.09
2023-03-16T12:16:54.075Z,25.51
2023-03-16T12:17:54.000Z,25.36
2023-03-16T12:18:53.985Z,24.86
2023-03-16T12:19:53.891Z,24.15
2023-03-16T12:20:53.866Z,24.41
2023-03-16T12:21:53.832Z,24.59
2023-03-16T12:22:53.774Z,23.93
2023-03-16T12:23:53.765Z,23.07
2023-03-16T12:24:54.540Z,22.68
2023-03-16T12:25:53.638Z,22.70
2023-03-16T12:26:53.572Z,22.73
2023-03-16T12:27:53.519Z,22.66
2023-03-16T12:28:53.473Z,22.21
2023-03-16T12:29:53.521Z,22.14
2023-03-16T12:30:53.383Z,21.60
2023-03-16T12:31:53.363Z,22.03
2023-03-16T12:32:53.390Z,21.43
2023-03-16T12:33:53.225Z,21.39
2023-03-16T12:34:53.178Z,21.54
2023-03-16T12:35:53.214Z,21.74
2023-03-16T12:36:53.086Z,21.95
2023-03-16T12:37:53.042Z,21.74
2023-03-16T12:38:53.025Z,21.82
2023-03-16T12:39:52.955Z,21.95
2023-03-16T12:40:52.876Z,22.33
2023-03-16T12:41:52.869Z,21.76
2023-03-16T12:42:52.792Z,21.67
2023-03-16T12:43:52.824Z,21.68
2023-03-16T12:44:52.683Z,22.17
2023-03-16T12:45:52.679Z,22.28
2023-03-16T12:46:52.596Z,22.20
2023-03-16T12:47:52.554Z,22.20
2023-03-16T12:48:52.518Z,22.61
2023-03-16T12:49:52.456Z,22.29
2023-03-16T12:50:52.410Z,22.51
2023-03-16T12:51:52.366Z,22.64
2023-03-16T12:52:52.323Z,22.56
2023-03-16T12:53:52.273Z,22.78
2023-03-16T12:54:52.225Z,22.31
2023-03-16T12:55:52.184Z,23.04
2023-03-16T12:56:52.132Z,22.39
2023-03-16T12:57:52.080Z,23.14
2023-03-16T12:58:52.025Z,23.14
2023-03-16T12:59:51.970Z,22.93
2023-03-16T13:00:51.960Z,22.62